Time;durP1;ratioP1;P1;durP2;ratioP2;P2;SDS_P1;SDS_P2;PMS_P1;PMS_P2;Temp;Humidity;BMP_temperature;BMP_pressure;BME280_temperature;BME280_humidity;BME280_pressure;Samples;Min_cycle;Max_cycle;Signal;HPM_P1;HPM_P2
2021/11/27 00:00:02;;;;;;;24.70;15.73;;;5.00;1.00;;;;;;5048372;28;20443;-61
2021/11/27 00:02:28;;;;;;;24.70;13.73;;;5.10;1.00;;;;;;5048899;28;20435;-62
2021/11/27 00:04:54;;;;;;;28.60;14.90;;;;;;;;;;5049460;28;20526;-62
2021/11/27 00:07:19;;;;;;;25.00;15.07;;;4.70;1.00;;;;;;5047902;28;20192;-61
2021/11/27 00:09:45;;;;;;;24.07;15.07;;;4.80;1.00;;;;;;5048028;28;20454;-60
2021/11/27 00:12:11;;;;;;;23.17;14.40;;;5.00;1.00;;;;;;5047493;28;20199;-61
2021/11/27 00:14:37;;;;;;;27.97;16.13;;;5.00;1.00;;;;;;5046053;28;20230;-62
2021/11/27 00:17:03;;;;;;;28.93;16.70;;;;;;;;;;5047235;28;20271;-61
2021/11/27 00:19:29;;;;;;;30.87;18.23;;;;;;;;;;5048368;28;20542;-61
2021/11/27 00:21:56;;;;;;;27.93;16.67;;;;;;;;;;5045399;28;20443;-62
2021/11/27 00:24:22;;;;;;;30.37;17.10;;;;;;;;;;5047284;28;20451;-61
2021/11/27 00:26:48;;;;;;;29.13;16.77;;;;;;;;;;5046900;28;20986;-60
2021/11/27 00:29:13;;;;;;;29.67;17.93;;;5.10;1.00;;;;;;5046187;28;20491;-61
2021/11/27 00:31:42;;;;;;;31.90;18.30;;;;;;;;;;5047261;28;20469;-61
2021/11/27 00:34:08;;;;;;;34.13;19.80;;;;;;;;;;5046016;28;20554;-61
2021/11/27 00:36:34;;;;;;;35.80;20.33;;;5.10;1.00;;;;;;5051898;28;20521;-61
2021/11/27 00:39:01;;;;;;;28.40;18.33;;;5.10;1.00;;;;;;5049054;28;20978;-61
2021/11/27 00:41:27;;;;;;;32.90;18.50;;;;;;;;;;5053145;28;20185;-61
2021/11/27 00:43:53;;;;;;;30.67;18.60;;;;;;;;;;5050993;28;20565;-61
2021/11/27 00:46:19;;;;;;;31.70;17.43;;;4.80;1.00;;;;;;5051546;28;20449;-60
2021/11/27 00:48:46;;;;;;;29.57;17.57;;;;;;;;;;5052384;28;20990;-62
2021/11/27 00:51:20;;;;;;;31.23;17.03;;;4.80;1.00;;;;;;5051796;28;20504;-61
2021/11/27 00:53:46;;;;;;;30.73;16.97;;;4.70;1.00;;;;;;5050594;28;20454;-61
2021/11/27 00:56:14;;;;;;;26.90;16.60;;;4.30;1.00;;;;;;5050557;28;20446;-59
2021/11/27 00:58:40;;;;;;;31.00;15.90;;;;;;;;;;5050842;28;20955;-61
2021/11/27 01:01:13;;;;;;;27.13;16.00;;;4.60;1.00;;;;;;5051094;28;20442;-61
2021/11/27 01:03:44;;;;;;;24.60;14.97;;;4.50;1.00;;;;;;5046672;28;20488;-61
2021/11/27 01:06:12;;;;;;;28.10;16.93;;;4.50;1.00;;;;;;5049479;28;20451;-61
2021/11/27 01:08:38;;;;;;;24.07;14.97;;;;;;;;;;5050900;28;20585;-61
2021/11/27 01:11:31;;;;;;;28.10;14.73;;;4.50;1.00;;;;;;5051962;28;20455;-61
2021/11/27 01:14:06;;;;;;;28.70;16.60;;;4.50;1.00;;;;;;5047282;28;20612;-60
2021/11/27 01:16:34;;;;;;;29.17;15.33;;;4.50;1.00;;;;;;5049891;28;20481;-61
2021/11/27 01:19:01;;;;;;;26.87;15.60;;;4.50;1.00;;;;;;5047279;28;20794;-61
2021/11/27 01:21:31;;;;;;;29.20;15.80;;;4.30;1.00;;;;;;5050623;28;20455;-62
2021/11/27 01:23:59;;;;;;;25.90;15.17;;;;;;;;;;5061930;28;20425;-60
2021/11/27 01:26:25;;;;;;;27.90;15.97;;;4.30;1.00;;;;;;5049949;28;20807;-60
2021/11/27 01:28:51;;;;;;;26.30;15.67;;;4.30;1.00;;;;;;5052245;28;20443;-61
2021/11/27 01:31:17;;;;;;;27.07;15.83;;;;;;;;;;5048732;28;20443;-60
2021/11/27 01:33:43;;;;;;;28.70;15.23;;;;;;;;;;5049136;28;20298;-61
2021/11/27 01:36:09;;;;;;;29.33;16.13;;;;;;;;;;5052730;28;20438;-60
2021/11/27 01:38:36;;;;;;;28.83;15.97;;;;;;;;;;5048611;28;21205;-60
2021/11/27 01:41:03;;;;;;;22.97;14.80;;;4.20;1.00;;;;;;5058217;28;20441;-61
2021/11/27 01:43:29;;;;;;;26.03;15.83;;;4.10;1.00;;;;;;5048252;28;20457;-60
2021/11/27 01:45:55;;;;;;;28.80;15.67;;;4.00;1.00;;;;;;5049394;28;20827;-60
2021/11/27 01:48:22;;;;;;;30.60;15.70;;;;;;;;;;5049888;28;20496;-60
2021/11/27 01:51:00;;;;;;;28.80;15.20;;;3.90;1.00;;;;;;5048654;28;20457;-60
2021/11/27 01:53:30;;;;;;;22.80;13.53;;;4.00;1.00;;;;;;5045047;28;20522;-59
2021/11/27 01:56:00;;;;;;;23.67;13.70;;;3.90;1.00;;;;;;5051193;28;20438;-60
2021/11/27 01:58:26;;;;;;;24.60;13.03;;;4.00;1.00;;;;;;5050689;28;21184;-60
2021/11/27 02:00:56;;;;;;;25.53;12.87;;;3.80;1.00;;;;;;5044887;28;20531;-61
2021/11/27 02:03:23;;;;;;;21.27;12.30;;;;;;;;;;5049640;28;20471;-60
2021/11/27 02:05:49;;;;;;;21.90;12.40;;;3.70;1.00;;;;;;5044113;28;20447;-60
2021/11/27 02:08:16;;;;;;;25.20;13.83;;;3.80;1.00;;;;;;5043359;28;20848;-61
2021/11/27 02:10:42;;;;;;;21.03;12.50;;;3.70;1.00;;;;;;5046548;28;20257;-61
2021/11/27 02:13:09;;;;;;;20.53;13.63;;;3.50;1.00;;;;;;5048643;28;20449;-61
2021/11/27 02:15:35;;;;;;;19.50;11.87;;;;;;;;;;5048104;28;20932;-61
2021/11/27 02:18:01;;;;;;;20.87;12.10;;;;;;;;;;5041090;28;20801;-61
2021/11/27 02:20:27;;;;;;;20.97;11.83;;;3.70;1.00;;;;;;5046272;28;20461;-61
2021/11/27 02:22:53;;;;;;;19.37;12.90;;;;;;;;;;5049574;28;20454;-61
2021/11/27 02:25:21;;;;;;;19.00;11.57;;;3.80;1.00;;;;;;5046987;28;20454;-62
2021/11/27 02:27:51;;;;;;;20.43;12.03;;;3.80;1.00;;;;;;5050177;28;20489;-61
2021/11/27 02:30:20;;;;;;;19.50;12.37;;;3.80;1.00;;;;;;5043804;28;20457;-61
2021/11/27 02:32:46;;;;;;;22.50;12.30;;;;;;;;;;5052273;28;20776;-61
2021/11/27 02:35:12;;;;;;;20.47;12.13;;;;;;;;;;5048022;28;21002;-61
2021/11/27 02:37:38;;;;;;;17.23;11.40;;;;;;;;;;5047683;28;20790;-60
2021/11/27 02:40:06;;;;;;;17.67;11.60;;;3.80;1.00;;;;;;5049417;28;20462;-60
2021/11/27 02:42:32;;;;;;;20.23;11.67;;;4.10;1.00;;;;;;5047770;28;20453;-62
2021/11/27 02:44:58;;;;;;;19.00;12.27;;;3.80;1.00;;;;;;5049706;28;21007;-61
2021/11/27 02:47:24;;;;;;;19.00;11.50;;;;;;;;;;5049412;28;20334;-63
2021/11/27 02:49:50;;;;;;;26.57;13.30;;;3.70;1.00;;;;;;5048610;28;20493;-61
2021/11/27 02:52:17;;;;;;;19.93;11.33;;;3.70;1.00;;;;;;5050382;28;20449;-61
2021/11/27 02:54:43;;;;;;;17.20;10.70;;;;;;;;;;5055844;28;20549;-61
2021/11/27 02:57:09;;;;;;;23.30;12.30;;;;;;;;;;5044317;28;20438;-61
2021/11/27 02:59:35;;;;;;;20.63;13.13;;;;;;;;;;5045572;28;20446;-61
2021/11/27 03:02:03;;;;;;;22.57;12.93;;;3.70;1.00;;;;;;5049010;28;20826;-61
2021/11/27 03:04:31;;;;;;;19.73;12.50;;;3.90;1.00;;;;;;5050240;28;20556;-60
2021/11/27 03:06:57;;;;;;;21.07;11.60;;;;;;;;;;5050168;28;20441;-61
2021/11/27 03:09:23;;;;;;;20.77;12.60;;;;;;;;;;5047593;28;20457;-60
2021/11/27 03:11:52;;;;;;;22.83;14.20;;;3.60;1.00;;;;;;5050152;28;20447;-62
2021/11/27 03:14:21;;;;;;;20.07;12.20;;;3.70;1.00;;;;;;5045372;28;20469;-61
2021/11/27 03:16:48;;;;;;;20.60;12.20;;;3.20;1.00;;;;;;5048146;28;20445;-61
2021/11/27 03:19:14;;;;;;;23.83;13.23;;;3.60;1.00;;;;;;5045194;28;20448;-61
2021/11/27 03:21:40;;;;;;;25.43;13.67;;;3.50;1.00;;;;;;5046226;28;20442;-61
2021/11/27 03:24:07;;;;;;;26.30;13.37;;;3.50;1.00;;;;;;5045289;28;20464;-61
2021/11/27 03:26:33;;;;;;;17.90;10.83;;;3.70;1.00;;;;;;5047971;28;20450;-60
2021/11/27 03:28:59;;;;;;;22.37;12.50;;;;;;;;;;5045884;28;20452;-60
2021/11/27 03:31:26;;;;;;;20.90;12.37;;;;;;;;;;5045115;28;20213;-62
2021/11/27 03:33:52;;;;;;;19.17;11.73;;;;;;;;;;5041673;28;20462;-60
2021/11/27 03:36:18;;;;;;;22.83;12.40;;;3.60;1.00;;;;;;5048126;28;20964;-60
2021/11/27 03:38:44;;;;;;;28.17;12.87;;;;;;;;;;5048556;28;20451;-61
2021/11/27 03:41:11;;;;;;;22.33;12.37;;;;;;;;;;5048871;28;20764;-60
2021/11/27 03:43:38;;;;;;;23.10;13.63;;;;;;;;;;5049052;28;21027;-61
2021/11/27 03:46:05;;;;;;;24.13;12.17;;;3.50;1.00;;;;;;5044661;28;20443;-60
2021/11/27 03:48:36;;;;;;;20.17;11.70;;;;;;;;;;5046566;28;20988;-60
2021/11/27 03:51:08;;;;;;;20.63;13.47;;;3.50;1.00;;;;;;5048994;28;20457;-60
2021/11/27 03:53:36;;;;;;;20.63;13.93;;;3.40;1.00;;;;;;5039394;28;20494;-60
2021/11/27 03:56:05;;;;;;;24.07;13.30;;;3.40;1.00;;;;;;5037331;28;20482;-61
2021/11/27 03:58:31;;;;;;;23.87;13.63;;;;;;;;;;5045521;28;20449;-60
2021/11/27 04:00:57;;;;;;;27.53;13.63;;;3.30;1.00;;;;;;5049628;28;20917;-61
2021/11/27 04:03:24;;;;;;;23.00;13.60;;;;;;;;;;5049443;28;20465;-62
2021/11/27 04:05:58;;;;;;;24.20;13.97;;;3.30;1.00;;;;;;5049596;28;20460;-61
2021/11/27 04:08:24;;;;;;;25.20;14.47;;;3.40;1.00;;;;;;5045568;28;20626;-62
2021/11/27 04:10:51;;;;;;;27.23;13.93;;;3.20;1.00;;;;;;5055154;28;20538;-62
2021/11/27 04:13:18;;;;;;;23.93;13.30;;;3.30;1.00;;;;;;5055597;28;20981;-62
2021/11/27 04:15:44;;;;;;;21.87;13.23;;;;;;;;;;5054529;28;20548;-61
2021/11/27 04:18:10;;;;;;;28.10;14.60;;;3.20;1.00;;;;;;5054026;28;20679;-61
2021/11/27 04:20:36;;;;;;;27.10;13.97;;;;;;;;;;5056140;28;20525;-61
2021/11/27 04:23:02;;;;;;;24.50;13.70;;;3.40;1.00;;;;;;5055983;28;20782;-61
2021/11/27 04:25:29;;;;;;;26.43;14.23;;;;;;;;;;5046415;28;20440;-61
2021/11/27 04:27:55;;;;;;;23.80;13.63;;;3.40;1.00;;;;;;5048549;28;20461;-61
2021/11/27 04:30:23;;;;;;;23.90;13.80;;;3.40;1.00;;;;;;5047634;28;20455;-61
2021/11/27 04:32:49;;;;;;;25.10;14.90;;;3.40;1.00;;;;;;5046800;28;20472;-61
2021/11/27 04:35:16;;;;;;;28.20;15.13;;;3.30;1.00;;;;;;5047660;28;20486;-61
2021/11/27 04:37:43;;;;;;;23.83;13.93;;;3.20;1.00;;;;;;5047818;28;20193;-61
2021/11/27 04:40:10;;;;;;;26.63;15.00;;;3.20;1.00;;;;;;5044733;28;21041;-62
2021/11/27 04:42:36;;;;;;;25.87;14.90;;;;;;;;;;5046388;28;20453;-62
2021/11/27 04:45:05;;;;;;;23.10;13.93;;;3.10;1.00;;;;;;5046718;28;20476;-61
2021/11/27 04:47:31;;;;;;;25.60;14.37;;;;;;;;;;5046797;28;20476;-61
2021/11/27 04:49:57;;;;;;;26.40;14.07;;;3.10;1.00;;;;;;5047501;28;20439;-61
2021/11/27 04:52:24;;;;;;;25.70;14.40;;;3.10;1.00;;;;;;5046543;28;21064;-61
2021/11/27 04:54:51;;;;;;;23.77;15.63;;;;;;;;;;5046451;28;20273;-62
2021/11/27 04:57:18;;;;;;;28.67;16.13;;;3.00;1.00;;;;;;5046401;28;20521;-61
2021/11/27 04:59:45;;;;;;;30.93;17.23;;;2.90;1.00;;;;;;5046867;28;20489;-61
2021/11/27 05:02:11;;;;;;;27.43;15.27;;;3.10;1.00;;;;;;5044876;28;20989;-60
2021/11/27 05:04:37;;;;;;;29.20;14.40;;;2.90;1.00;;;;;;5046856;28;20453;-61
2021/11/27 05:07:03;;;;;;;23.53;13.30;;;;;;;;;;5045689;28;20465;-61
2021/11/27 05:09:29;;;;;;;32.17;15.60;;;;;;;;;;5044970;28;20456;-61
2021/11/27 05:11:56;;;;;;;24.27;14.70;;;;;;;;;;5045841;28;20898;-61
2021/11/27 05:14:22;;;;;;;22.77;14.67;;;;;;;;;;5046643;28;20572;-62
2021/11/27 05:16:48;;;;;;;29.73;15.80;;;;;;;;;;5043750;28;20526;-60
2021/11/27 05:19:13;;;;;;;31.40;15.67;;;2.80;1.00;;;;;;5046255;28;20539;-61
2021/11/27 05:21:39;;;;;;;28.87;15.57;;;2.90;1.00;;;;;;5042436;28;20445;-59
2021/11/27 05:24:05;;;;;;;29.10;15.47;;;2.90;1.00;;;;;;5051652;28;20184;-61
2021/11/27 05:26:32;;;;;;;23.97;13.90;;;;;;;;;;5051272;28;20281;-59
2021/11/27 05:28:57;;;;;;;26.63;14.43;;;2.70;1.00;;;;;;5049921;28;20500;-59
2021/11/27 05:31:24;;;;;;;25.50;15.10;;;;;;;;;;5049317;28;20492;-61
2021/11/27 05:36:28;;;;;;;24.37;14.67;;;3.00;1.00;;;;;;5046250;28;20834;-60
2021/11/27 05:38:54;;;;;;;25.90;14.33;;;3.00;1.00;;;;;;5052014;28;20987;-62
2021/11/27 05:41:19;;;;;;;28.77;13.83;;;3.10;1.00;;;;;;5051162;28;20448;-59
2021/11/27 05:43:45;;;;;;;23.93;14.60;;;3.70;1.00;;;;;;5049753;28;20198;-60
2021/11/27 05:46:11;;;;;;;25.27;14.60;;;;;;;;;;5051588;28;20578;-60
2021/11/27 05:48:37;;;;;;;24.50;13.53;;;;;;;;;;5047320;28;20271;-60
2021/11/27 05:51:05;;;;;;;24.17;13.50;;;;;;;;;;5042158;28;20445;-61
2021/11/27 05:53:31;;;;;;;18.50;12.70;;;;;;;;;;5043670;28;20468;-60
2021/11/27 05:55:58;;;;;;;21.60;12.90;;;;;;;;;;5041816;28;20453;-59
2021/11/27 05:58:25;;;;;;;24.40;13.83;;;3.20;1.00;;;;;;5043274;28;20440;-60
2021/11/27 06:00:51;;;;;;;26.70;14.70;;;3.40;1.00;;;;;;5042812;28;20456;-60
2021/11/27 06:03:18;;;;;;;20.00;12.57;;;;;;;;;;5043324;28;20516;-61
2021/11/27 06:05:44;;;;;;;24.60;13.57;;;;;;;;;;5042943;28;20793;-62
2021/11/27 06:08:12;;;;;;;26.50;13.90;;;3.20;1.00;;;;;;5042563;28;20894;-61
2021/11/27 06:10:37;;;;;;;26.57;14.70;;;3.70;1.00;;;;;;5042461;28;20970;-60
2021/11/27 06:13:04;;;;;;;24.57;15.30;;;3.00;1.00;;;;;;5051406;28;20444;-61
2021/11/27 06:15:30;;;;;;;27.70;13.60;;;3.20;1.00;;;;;;5049963;28;20224;-61
2021/11/27 06:17:55;;;;;;;23.77;14.80;;;3.60;1.00;;;;;;5051388;28;20528;-61
2021/11/27 06:20:22;;;;;;;27.67;15.87;;;;;;;;;;5051289;28;20641;-59
2021/11/27 06:22:48;;;;;;;22.87;14.43;;;3.10;1.00;;;;;;5051183;28;20680;-58
2021/11/27 06:25:14;;;;;;;32.77;16.00;;;3.30;1.00;;;;;;5060385;28;20493;-60
2021/11/27 06:27:40;;;;;;;24.53;14.30;;;3.30;1.00;;;;;;5050720;28;20453;-61
2021/11/27 06:30:07;;;;;;;25.93;14.30;;;3.20;1.00;;;;;;5051284;28;20454;-61
2021/11/27 06:32:34;;;;;;;22.27;13.90;;;;;;;;;;5054936;28;20506;-61
2021/11/27 06:34:59;;;;;;;27.43;14.83;;;3.10;1.00;;;;;;5052000;28;20502;-62
2021/11/27 06:37:26;;;;;;;32.03;15.50;;;2.90;1.00;;;;;;5051447;28;20861;-61
2021/11/27 06:39:52;;;;;;;29.90;16.53;;;;;;;;;;5050662;28;20453;-60
2021/11/27 06:42:19;;;;;;;27.10;14.90;;;;;;;;;;5051108;28;20729;-61
2021/11/27 06:44:48;;;;;;;25.00;14.07;;;1.40;1.00;;;;;;5053823;28;21187;-60
2021/11/27 06:47:20;;;;;;;23.63;14.60;;;2.70;1.00;;;;;;5061114;28;20495;-60
2021/11/27 06:49:46;;;;;;;27.77;15.00;;;;;;;;;;5051226;28;21834;-62
2021/11/27 06:52:14;;;;;;;25.53;15.83;;;2.90;1.00;;;;;;5056616;28;20452;-62
2021/11/27 06:54:41;;;;;;;25.80;15.97;;;3.00;1.00;;;;;;5047733;28;20488;-62
2021/11/27 06:57:07;;;;;;;27.43;16.53;;;3.00;1.00;;;;;;5053014;28;20452;-61
2021/11/27 06:59:34;;;;;;;26.10;15.20;;;2.90;1.00;;;;;;5060245;28;20446;-61
2021/11/27 07:02:00;;;;;;;30.20;16.37;;;3.10;1.00;;;;;;5050010;28;20450;-60
2021/11/27 07:04:26;;;;;;;26.00;15.17;;;2.90;1.00;;;;;;5058168;28;20446;-60
2021/11/27 07:06:52;;;;;;;27.93;15.10;;;3.10;1.00;;;;;;5050191;28;20450;-60
2021/11/27 07:09:18;;;;;;;23.73;15.20;;;3.30;1.00;;;;;;5059994;28;20439;-60
2021/11/27 07:11:44;;;;;;;21.70;14.27;;;;;;;;;;5049426;28;20447;-61
2021/11/27 07:14:10;;;;;;;24.53;14.77;;;;;;;;;;5052641;28;20567;-60
2021/11/27 07:16:36;;;;;;;24.40;14.33;;;3.30;1.00;;;;;;5058214;28;20951;-60
2021/11/27 07:19:02;;;;;;;27.50;15.03;;;3.20;1.00;;;;;;5055199;28;20439;-63
2021/11/27 07:21:28;;;;;;;27.60;14.03;;;3.40;1.00;;;;;;5061522;28;20464;-62
2021/11/27 07:23:54;;;;;;;26.40;14.73;;;;;;;;;;5054410;28;20935;-63
2021/11/27 07:26:21;;;;;;;28.63;14.77;;;3.60;1.00;;;;;;5052940;28;20599;-63
2021/11/27 07:28:47;;;;;;;21.40;13.37;;;3.70;1.00;;;;;;5052333;28;20497;-63
2021/11/27 07:31:13;;;;;;;23.37;14.17;;;3.70;1.00;;;;;;5055222;28;20430;-63
2021/11/27 07:33:39;;;;;;;20.63;13.33;;;;;;;;;;5052827;28;20823;-62
2021/11/27 07:36:06;;;;;;;21.57;13.43;;;4.00;1.00;;;;;;5052142;28;20437;-64
2021/11/27 07:38:33;;;;;;;23.77;14.00;;;4.30;1.00;;;;;;5057711;28;20417;-63
2021/11/27 07:40:59;;;;;;;21.30;13.87;;;;;;;;;;5053044;28;20458;-63
2021/11/27 07:43:25;;;;;;;24.33;13.70;;;4.70;1.00;;;;;;5055249;28;20441;-63
2021/11/27 07:45:51;;;;;;;23.47;13.97;;;;;;;;;;5056569;28;20509;-64
2021/11/27 07:48:17;;;;;;;25.57;13.90;;;;;;;;;;5056461;28;20569;-63
2021/11/27 07:50:43;;;;;;;22.57;13.00;;;;;;;;;;5059282;28;20439;-63
2021/11/27 07:53:09;;;;;;;20.17;12.50;;;4.50;1.00;;;;;;5056051;28;20447;-63
2021/11/27 07:55:35;;;;;;;21.60;13.27;;;;;;;;;;5048684;28;20489;-64
2021/11/27 07:58:02;;;;;;;23.47;13.50;;;;;;;;;;5051783;28;20188;-65
2021/11/27 08:00:27;;;;;;;20.57;12.60;;;5.10;1.00;;;;;;5052980;28;20451;-63
2021/11/27 08:02:53;;;;;;;20.10;12.87;;;;;;;;;;5050679;28;20438;-63
2021/11/27 08:05:20;;;;;;;19.70;12.60;;;;;;;;;;5058184;28;20191;-64
2021/11/27 08:07:46;;;;;;;23.33;14.10;;;;;;;;;;5048938;28;20789;-63
2021/11/27 08:10:13;;;;;;;21.30;12.07;;;;;;;;;;5051968;28;20438;-63
2021/11/27 08:12:39;;;;;;;17.13;10.67;;;4.90;1.00;;;;;;5051427;28;20912;-63
2021/11/27 08:15:06;;;;;;;19.17;11.03;;;4.90;1.00;;;;;;5051093;28;20548;-62
2021/11/27 08:17:32;;;;;;;20.87;12.00;;;;;;;;;;5044304;28;20187;-63
2021/11/27 08:19:58;;;;;;;19.13;11.50;;;4.80;1.00;;;;;;5051860;28;20529;-63
2021/11/27 08:22:23;;;;;;;20.20;11.50;;;4.70;1.00;;;;;;5057426;28;20528;-62
2021/11/27 08:24:51;;;;;;;22.43;12.70;;;;;;;;;;5055892;28;20574;-63
2021/11/27 08:27:17;;;;;;;20.93;12.60;;;4.70;1.00;;;;;;5053149;28;20495;-62
2021/11/27 08:29:43;;;;;;;19.73;12.23;;;4.80;1.00;;;;;;5063383;28;20530;-63
2021/11/27 08:32:09;;;;;;;20.33;12.80;;;4.70;1.00;;;;;;5057747;28;20848;-62
2021/11/27 08:34:35;;;;;;;19.00;12.37;;;;;;;;;;5071355;28;20469;-62
2021/11/27 08:37:01;;;;;;;22.80;12.63;;;4.70;1.00;;;;;;5062905;28;20237;-63
2021/11/27 08:39:26;;;;;;;17.83;12.37;;;4.80;1.00;;;;;;5053884;28;20797;-62
2021/11/27 08:41:52;;;;;;;21.77;13.03;;;;;;;;;;5051409;28;20299;-62
2021/11/27 08:44:18;;;;;;;21.80;12.03;;;4.70;1.00;;;;;;5051315;28;20185;-62
2021/11/27 08:46:56;;;;;;;24.50;13.27;;;;;;;;;;5057430;28;21199;-61
2021/11/27 08:52:48;;;;;;;18.70;11.90;;;5.00;1.00;;;;;;4950479;28;20500;-63
2021/11/27 08:58:04;;;;;;;19.27;11.63;;;5.10;1.00;;;;;;5028498;28;20797;-61
2021/11/27 09:04:27;;;;;;;19.90;11.17;;;5.20;1.00;;;;;;4985057;28;20464;-61
2021/11/27 09:25:43;;;;;;;18.07;11.70;;;6.20;1.00;;;;;;5083162;28;20564;-63
2021/11/27 09:28:09;;;;;;;16.20;11.37;;;;;;;;;;5084193;28;20441;-62
2021/11/27 09:30:35;;;;;;;18.77;12.50;;;;;;;;;;5073550;28;20434;-63
2021/11/27 09:33:01;;;;;;;19.90;12.50;;;;;;;;;;5076303;28;20439;-62
2021/11/27 09:35:27;;;;;;;16.63;11.33;;;;;;;;;;5081029;28;20466;-61
2021/11/27 09:37:53;;;;;;;16.67;12.20;;;6.50;1.00;;;;;;5073058;28;20499;-62
2021/11/27 09:40:19;;;;;;;17.90;11.90;;;6.50;1.00;;;;;;5078326;28;20433;-62
2021/11/27 09:42:45;;;;;;;17.20;11.53;;;;;;;;;;5069704;28;20184;-61
2021/11/27 09:45:11;;;;;;;16.53;11.70;;;6.50;1.00;;;;;;5075614;28;20438;-62
2021/11/27 09:47:37;;;;;;;26.70;12.47;;;6.40;1.00;;;;;;5078558;28;20470;-62
2021/11/27 09:50:06;;;;;;;18.63;11.57;;;6.60;1.00;;;;;;5077648;28;20524;-62
2021/11/27 09:52:32;;;;;;;19.70;11.60;;;6.70;1.00;;;;;;5081775;28;20488;-63
2021/11/27 09:54:58;;;;;;;18.27;12.43;;;6.70;1.00;;;;;;5077407;28;20469;-62
2021/11/27 09:57:25;;;;;;;17.20;12.03;;;6.70;1.00;;;;;;5077168;28;20442;-61
2021/11/27 09:59:52;;;;;;;17.63;11.40;;;;;;;;;;5077334;28;20415;-61
2021/11/27 10:02:22;;;;;;;19.27;10.90;;;6.80;1.00;;;;;;5084351;28;20437;-63
2021/11/27 10:04:56;;;;;;;16.13;10.83;;;6.80;1.00;;;;;;5079568;28;20468;-63
2021/11/27 10:07:22;;;;;;;20.03;11.10;;;;;;;;;;5075534;28;20434;-62
2021/11/27 10:09:51;;;;;;;21.70;11.80;;;6.80;1.00;;;;;;5075107;28;20416;-61
2021/11/27 10:12:19;;;;;;;17.10;11.97;;;6.80;1.00;;;;;;5077313;28;20424;-62
2021/11/27 10:14:45;;;;;;;21.10;13.00;;;;;;;;;;5071018;28;20975;-62
2021/11/27 10:17:19;;;;;;;17.27;11.43;;;6.90;1.00;;;;;;5084101;28;20412;-62
2021/11/27 10:19:48;;;;;;;17.13;12.60;;;7.00;1.00;;;;;;5080686;28;20437;-62
2021/11/27 10:22:23;;;;;;;22.70;13.30;;;7.10;1.00;;;;;;5073271;28;20872;-62
2021/11/27 10:24:50;;;;;;;18.83;12.87;;;7.20;1.00;;;;;;5084415;28;20468;-62
2021/11/27 10:27:23;;;;;;;18.43;11.97;;;7.40;1.00;;;;;;5077652;28;20456;-61
2021/11/27 10:30:09;;;;;;;18.13;12.33;;;7.50;1.00;;;;;;5069997;28;20439;-63
2021/11/27 10:32:38;;;;;;;16.80;12.00;;;7.70;1.00;;;;;;5080660;28;20946;-63
2021/11/27 10:35:07;;;;;;;17.70;11.27;;;7.80;1.00;;;;;;5072904;28;20549;-62
2021/11/27 10:37:53;;;;;;;16.10;11.20;;;7.80;1.00;;;;;;5063786;28;20454;-62
2021/11/27 10:40:28;;;;;;;14.00;10.83;;;7.70;1.00;;;;;;5058693;28;20504;-65
2021/11/27 10:42:54;;;;;;;17.23;10.73;;;;;;;;;;5055859;28;20438;-62
2021/11/27 10:45:29;;;;;;;13.90;10.30;;;7.70;1.00;;;;;;5058717;28;20508;-62
2021/11/27 10:48:19;;;;;;;21.37;12.70;;;7.60;1.00;;;;;;5058540;28;20524;-63
2021/11/27 10:50:52;;;;;;;16.57;11.33;;;7.50;1.00;;;;;;5061923;28;20439;-63
2021/11/27 10:53:25;;;;;;;18.83;11.67;;;7.50;1.00;;;;;;5062046;28;20804;-62
2021/11/27 10:55:51;;;;;;;16.27;11.17;;;7.50;1.00;;;;;;5059711;28;20540;-62
2021/11/27 10:58:18;;;;;;;15.63;10.20;;;;;;;;;;5065857;28;20446;-65
2021/11/27 11:00:51;;;;;;;17.03;11.77;;;7.40;1.00;;;;;;5059143;28;20484;-62
2021/11/27 11:03:25;;;;;;;13.03;10.50;;;7.40;1.00;;;;;;5065090;28;20438;-63
2021/11/27 11:05:51;;;;;;;14.87;11.60;;;7.40;1.00;;;;;;5060572;28;20450;-63
2021/11/27 11:08:28;;;;;;;13.80;9.70;;;7.30;1.00;;;;;;5059445;28;20595;-64
2021/11/27 11:10:54;;;;;;;15.33;11.20;;;7.40;1.00;;;;;;5061281;28;20181;-62
2021/11/27 11:13:27;;;;;;;15.40;10.90;;;7.40;1.00;;;;;;5061169;28;20402;-64
2021/11/27 11:15:53;;;;;;;17.20;10.27;;;7.30;1.00;;;;;;5062178;28;20181;-62
2021/11/27 11:18:21;;;;;;;19.20;11.00;;;7.30;1.00;;;;;;5066179;28;20507;-63
2021/11/27 11:20:54;;;;;;;13.77;10.70;;;7.50;1.00;;;;;;5059177;28;20189;-63
2021/11/27 11:23:25;;;;;;;15.90;10.70;;;7.40;1.00;;;;;;5061293;28;20438;-62
2021/11/27 11:25:52;;;;;;;15.10;9.60;;;;;;;;;;5070407;28;20437;-63
2021/11/27 11:28:18;;;;;;;13.50;10.20;;;;;;;;;;5053073;28;20638;-63
2021/11/27 11:30:47;;;;;;;15.83;10.50;;;7.20;1.00;;;;;;5059365;28;20883;-64
2021/11/27 11:33:15;;;;;;;16.33;10.80;;;7.20;1.00;;;;;;5049692;28;20698;-63
2021/11/27 11:35:41;;;;;;;17.47;11.50;;;7.20;1.00;;;;;;5059422;28;20914;-62
2021/11/27 11:38:13;;;;;;;15.27;10.83;;;7.20;1.00;;;;;;5064018;28;20434;-65
2021/11/27 11:40:40;;;;;;;19.03;11.53;;;7.20;1.00;;;;;;5059748;28;20510;-63
2021/11/27 11:43:07;;;;;;;17.23;11.07;;;7.20;1.00;;;;;;5043931;28;20454;-64
2021/11/27 11:45:33;;;;;;;17.03;11.87;;;7.10;1.00;;;;;;5059283;28;20438;-63
2021/11/27 11:47:59;;;;;;;16.03;10.80;;;7.10;1.00;;;;;;5059833;28;20491;-61
2021/11/27 11:50:27;;;;;;;12.83;10.50;;;7.00;1.00;;;;;;5054885;28;20442;-61
2021/11/27 11:53:13;;;;;;;16.67;11.07;;;7.00;1.00;;;;;;5050230;28;20908;-60
2021/11/27 11:55:57;;;;;;;16.13;11.30;;;7.00;1.00;;;;;;5051174;28;20458;-59
2021/11/27 11:58:46;;;;;;;15.10;10.53;;;7.00;1.00;;;;;;5050335;28;20439;-60
2021/11/27 12:01:28;;;;;;;15.30;9.63;;;7.00;1.00;;;;;;5049932;28;20435;-59
2021/11/27 12:03:54;;;;;;;14.40;10.77;;;;;;;;;;5051279;28;20431;-60
2021/11/27 12:06:29;;;;;;;18.30;10.70;;;6.90;1.00;;;;;;5051091;28;20447;-59
2021/11/27 12:09:00;;;;;;;17.57;10.53;;;6.90;1.00;;;;;;5058994;28;20926;-59
2021/11/27 12:11:45;;;;;;;14.53;10.33;;;7.00;1.00;;;;;;5071340;28;21026;-60
2021/11/27 12:14:22;;;;;;;16.17;10.90;;;7.10;1.00;;;;;;5070935;28;20458;-61
2021/11/27 12:17:13;;;;;;;16.77;10.70;;;7.10;1.00;;;;;;5071296;28;20441;-60
2021/11/27 12:19:40;;;;;;;14.77;10.20;;;7.10;1.00;;;;;;5070995;28;20774;-59
2021/11/27 12:22:30;;;;;;;14.57;9.97;;;7.20;1.00;;;;;;5070862;28;20421;-61
2021/11/27 12:25:16;;;;;;;17.13;11.17;;;7.20;1.00;;;;;;5070673;28;21041;-59
2021/11/27 12:28:04;;;;;;;20.67;12.43;;;;;;;;;;5070788;28;20477;-61
2021/11/27 12:30:54;;;;;;;17.43;10.70;;;7.20;1.00;;;;;;5070738;28;20441;-59
2021/11/27 12:33:45;;;;;;;16.87;11.13;;;7.20;1.00;;;;;;5059150;28;20435;-61
2021/11/27 12:36:27;;;;;;;16.73;9.57;;;;;;;;;;5050625;28;20792;-62
2021/11/27 12:38:59;;;;;;;19.20;11.83;;;7.10;1.00;;;;;;5050747;28;20431;-59
2021/11/27 12:41:26;;;;;;;18.43;12.10;;;7.20;1.00;;;;;;5050772;28;21014;-59
2021/11/27 12:44:19;;;;;;;16.40;11.30;;;7.20;1.00;;;;;;5050607;28;20841;-59
2021/11/27 12:46:50;;;;;;;15.80;11.47;;;7.10;1.00;;;;;;5055451;28;20426;-59
2021/11/27 12:49:34;;;;;;;18.27;11.97;;;;;;;;;;5069025;28;20449;-59
2021/11/27 12:52:15;;;;;;;13.43;9.87;;;7.20;1.00;;;;;;5070569;28;20521;-60
2021/11/27 12:54:44;;;;;;;15.00;10.77;;;7.30;1.00;;;;;;5070264;28;20501;-60
2021/11/27 12:57:18;;;;;;;18.70;12.17;;;7.40;1.00;;;;;;5054415;28;20427;-61
2021/11/27 12:59:46;;;;;;;18.07;11.60;;;7.50;1.00;;;;;;5048803;28;20481;-61
2021/11/27 13:02:17;;;;;;;14.50;10.50;;;7.50;1.00;;;;;;5050302;28;20484;-60
2021/11/27 13:04:45;;;;;;;14.00;10.50;;;7.50;1.00;;;;;;5050567;28;20414;-61
2021/11/27 13:07:12;;;;;;;17.33;10.97;;;7.40;1.00;;;;;;5067661;28;20480;-61
2021/11/27 13:09:38;;;;;;;16.80;11.20;;;7.30;1.00;;;;;;5070109;28;20442;-59
2021/11/27 13:12:12;;;;;;;16.10;10.90;;;7.20;1.00;;;;;;5070630;28;20441;-60
2021/11/27 13:14:40;;;;;;;13.87;10.00;;;7.10;1.00;;;;;;5070125;28;20468;-61
2021/11/27 13:17:11;;;;;;;17.43;9.50;;;7.10;1.00;;;;;;5070208;28;20447;-60
2021/11/27 13:19:39;;;;;;;13.77;10.23;;;7.00;1.00;;;;;;5049005;28;20438;-61
2021/11/27 13:22:14;;;;;;;16.20;10.47;;;7.00;1.00;;;;;;5050218;28;20435;-60
2021/11/27 13:25:01;;;;;;;14.77;10.10;;;7.00;1.00;;;;;;5049924;28;20527;-61
2021/11/27 13:27:30;;;;;;;16.33;9.67;;;6.90;1.00;;;;;;5049803;28;20467;-59
2021/11/27 13:30:00;;;;;;;17.30;10.93;;;6.90;1.00;;;;;;5050095;28;20573;-60
2021/11/27 13:32:39;;;;;;;15.53;10.27;;;6.80;1.00;;;;;;5049886;28;20454;-60
2021/11/27 13:35:07;;;;;;;14.50;9.80;;;6.80;1.00;;;;;;5050096;28;20641;-61
2021/11/27 13:37:57;;;;;;;15.73;10.83;;;6.80;1.00;;;;;;5050190;28;20443;-59
2021/11/27 13:40:26;;;;;;;15.43;10.67;;;6.80;1.00;;;;;;5049855;28;20789;-59
2021/11/27 13:42:53;;;;;;;14.77;10.40;;;6.80;1.00;;;;;;5048497;28;20442;-59
2021/11/27 13:45:23;;;;;;;21.23;10.23;;;6.90;1.00;;;;;;5050036;28;20522;-60
2021/11/27 13:48:01;;;;;;;15.60;11.43;;;7.00;1.00;;;;;;5048429;28;20489;-60
2021/11/27 13:50:28;;;;;;;18.27;12.10;;;7.00;1.00;;;;;;5049726;28;20434;-62